createdAt,value
2018-09-15T00:04:53.364Z,2.17
2018-09-15T00:09:56.859Z,3.10
2018-09-15T00:15:00.853Z,2.90
2018-09-15T00:20:05.209Z,3.30
2018-09-15T00:25:08.950Z,5.07
2018-09-15T00:31:16.917Z,27.77
2018-09-15T00:36:20.742Z,22.70
2018-09-15T00:41:24.127Z,7.37
2018-09-15T00:46:27.994Z,6.70
2018-09-15T00:51:31.457Z,6.60
2018-09-15T00:56:35.102Z,4.80
2018-09-15T01:01:38.510Z,4.77
2018-09-15T01:06:41.898Z,3.70
2018-09-15T01:11:45.685Z,2.90
2018-09-15T01:16:49.409Z,3.43
2018-09-15T01:21:53.239Z,3.63
2018-09-15T01:26:57.122Z,2.90
2018-09-15T01:32:00.973Z,2.20
2018-09-15T01:37:04.550Z,3.40
2018-09-15T01:42:09.891Z,3.03
2018-09-15T01:47:13.766Z,3.40
2018-09-15T01:52:17.667Z,2.90
2018-09-15T01:57:21.489Z,2.03
2018-09-15T02:02:25.167Z,2.80
2018-09-15T02:07:28.581Z,3.90
2018-09-15T02:12:32.344Z,2.83
2018-09-15T02:17:36.038Z,3.03
2018-09-15T02:22:39.794Z,4.00
2018-09-15T02:27:43.593Z,3.53
2018-09-15T02:32:47.621Z,4.00
2018-09-15T02:37:51.107Z,3.00
2018-09-15T02:42:54.720Z,2.73
2018-09-15T02:47:58.643Z,2.83
2018-09-15T02:53:02.389Z,2.97
2018-09-15T02:58:06.555Z,2.47
2018-09-15T03:03:09.942Z,2.77
2018-09-15T03:08:14.258Z,2.30
2018-09-15T03:13:17.866Z,2.27
2018-09-15T03:18:21.630Z,2.90
2018-09-15T03:23:25.154Z,2.47
2018-09-15T03:28:37.356Z,2.40
2018-09-15T03:33:41.807Z,2.03
2018-09-15T03:38:45.624Z,4.40
2018-09-15T03:43:50.469Z,5.53
2018-09-15T03:48:56.270Z,4.33
2018-09-15T03:54:00.801Z,5.33
2018-09-15T03:59:04.477Z,5.90
2018-09-15T04:04:08.355Z,6.60
2018-09-15T04:09:19.699Z,5.70
2018-09-15T04:14:23.291Z,6.43
2018-09-15T04:19:27.890Z,6.97
2018-09-15T04:24:36.305Z,6.50
2018-09-15T04:29:40.871Z,4.80
2018-09-15T04:34:45.306Z,6.37
2018-09-15T04:39:51.866Z,6.37
2018-09-15T04:44:55.515Z,5.30
2018-09-15T04:49:59.539Z,5.73
2018-09-15T04:55:03.149Z,6.33
2018-09-15T05:00:06.918Z,5.67
2018-09-15T05:05:10.474Z,5.10
2018-09-15T05:10:14.450Z,4.60
2018-09-15T05:15:17.996Z,4.90
2018-09-15T05:20:21.966Z,5.40
2018-09-15T05:25:26.049Z,5.40
2018-09-15T05:30:30.944Z,4.67
2018-09-15T05:35:34.627Z,6.93
2018-09-15T05:40:38.450Z,7.23
2018-09-15T05:45:42.048Z,6.30
2018-09-15T05:50:51.478Z,6.03
2018-09-15T05:55:56.030Z,6.30
2018-09-15T06:01:00.068Z,5.63
2018-09-15T06:06:03.654Z,4.90
2018-09-15T06:11:07.169Z,5.53
2018-09-15T06:16:10.686Z,6.03
2018-09-15T06:21:14.305Z,7.43
2018-09-15T06:26:19.599Z,12.67
2018-09-15T06:31:23.322Z,7.40
2018-09-15T06:36:28.446Z,6.47
2018-09-15T06:41:32.108Z,7.10
2018-09-15T06:46:36.501Z,6.37
2018-09-15T06:51:40.731Z,3.90
2018-09-15T06:56:44.296Z,4.87
2018-09-15T07:01:47.853Z,5.03
2018-09-15T07:06:51.419Z,3.73
2018-09-15T07:11:55.207Z,3.00
2018-09-15T07:16:58.675Z,3.20
2018-09-15T07:22:02.700Z,3.87
2018-09-15T07:27:06.170Z,2.90
2018-09-15T07:32:14.346Z,3.50
2018-09-15T07:37:19.538Z,3.33
2018-09-15T07:42:23.113Z,3.60
2018-09-15T07:47:28.123Z,4.07
2018-09-15T07:52:32.720Z,3.97
2018-09-15T07:57:36.233Z,3.40
2018-09-15T08:02:39.944Z,8.80
2018-09-15T08:07:43.375Z,7.60
2018-09-15T08:12:47.249Z,4.13
2018-09-15T08:17:50.609Z,2.70
2018-09-15T08:22:54.295Z,3.17
2018-09-15T08:27:57.671Z,4.03
2018-09-15T08:33:01.058Z,4.30
2018-09-15T08:38:04.517Z,2.93
2018-09-15T08:43:08.383Z,2.20
2018-09-15T08:48:11.763Z,1.90
2018-09-15T08:53:15.606Z,5.13
2018-09-15T08:58:19.086Z,2.13
2018-09-15T09:03:22.498Z,1.90
2018-09-15T09:08:25.942Z,7.60
2018-09-15T09:13:29.382Z,2.30
2018-09-15T09:18:32.762Z,2.53
2018-09-15T09:23:36.210Z,2.47
2018-09-15T09:28:39.709Z,2.17
2018-09-15T09:33:43.106Z,2.60
2018-09-15T09:38:46.510Z,1.60
2018-09-15T09:43:49.886Z,2.37
2018-09-15T09:50:12.746Z,2.50
2018-09-15T09:55:16.158Z,2.00
2018-09-15T10:00:25.362Z,2.20
2018-09-15T10:05:28.865Z,2.30
2018-09-15T10:10:32.940Z,1.80
2018-09-15T10:15:36.367Z,2.67
2018-09-15T10:20:39.842Z,1.93
2018-09-15T10:25:43.313Z,2.23
2018-09-15T10:30:50.739Z,2.30
2018-09-15T10:35:55.379Z,1.93
2018-09-15T10:40:58.867Z,1.43
2018-09-15T10:46:03.800Z,2.03
2018-09-15T10:51:07.331Z,1.87
2018-09-15T10:56:10.747Z,2.27
2018-09-15T11:01:14.127Z,1.37
2018-09-15T11:06:17.659Z,2.03
2018-09-15T11:11:21.112Z,2.10
2018-09-15T11:16:25.417Z,2.37
2018-09-15T11:21:28.960Z,1.80
2018-09-15T11:26:32.391Z,2.27
2018-09-15T11:31:35.851Z,1.77
2018-09-15T11:36:39.269Z,2.40
2018-09-15T11:41:42.845Z,2.37
2018-09-15T11:46:46.363Z,1.80
2018-09-15T11:51:50.348Z,1.40
2018-09-15T11:56:53.981Z,1.83
2018-09-15T12:01:57.976Z,1.77
2018-09-15T12:07:01.440Z,2.20
2018-09-15T12:12:04.931Z,1.80
2018-09-15T12:17:08.459Z,1.60
2018-09-15T12:22:11.874Z,2.00
2018-09-15T12:27:15.333Z,1.90
2018-09-15T12:32:18.788Z,2.13
2018-09-15T12:37:22.643Z,2.50
2018-09-15T12:42:26.223Z,1.97
2018-09-15T12:47:29.745Z,2.60
2018-09-15T12:52:33.310Z,3.63
2018-09-15T12:57:37.183Z,2.30
2018-09-15T13:02:40.633Z,2.40
2018-09-15T13:07:44.122Z,2.43
2018-09-15T13:12:48.243Z,2.13
2018-09-15T13:17:51.666Z,2.50
2018-09-15T13:22:55.213Z,2.10
2018-09-15T13:27:58.801Z,2.67
2018-09-15T13:33:02.657Z,2.40
2018-09-15T13:38:06.143Z,2.17
2018-09-15T13:43:14.027Z,2.20
2018-09-15T13:48:18.394Z,2.00
2018-09-15T13:53:22.007Z,2.20
2018-09-15T13:58:25.450Z,7.23
2018-09-15T14:03:29.457Z,3.37
2018-09-15T14:08:32.958Z,5.53
2018-09-15T14:13:37.363Z,4.77
2018-09-15T14:18:40.782Z,4.30
2018-09-15T14:23:44.790Z,3.90
2018-09-15T14:28:51.360Z,2.60
2018-09-15T14:33:54.965Z,2.83
2018-09-15T14:38:58.539Z,1.83
2018-09-15T14:44:02.517Z,2.47
2018-09-15T14:49:06.114Z,1.90
2018-09-15T14:54:09.852Z,1.83
2018-09-15T14:59:14.004Z,3.80
2018-09-15T15:04:17.617Z,3.27
2018-09-15T15:09:21.041Z,1.70
2018-09-15T15:14:24.654Z,1.60
2018-09-15T15:19:28.654Z,2.80
2018-09-15T15:24:32.106Z,1.63
2018-09-15T15:29:35.601Z,1.83
2018-09-15T15:34:39.199Z,1.70
2018-09-15T15:39:42.893Z,1.77
2018-09-15T15:44:48.839Z,2.20
2018-09-15T15:49:52.501Z,2.10
2018-09-15T15:54:55.942Z,2.00
2018-09-15T15:59:59.522Z,2.20
2018-09-15T16:05:03.120Z,2.80
2018-09-15T16:10:06.979Z,2.13
2018-09-15T16:15:16.422Z,1.83
2018-09-15T16:20:21.220Z,1.70
2018-09-15T16:25:24.657Z,2.80
2018-09-15T16:30:30.199Z,1.97
2018-09-15T16:35:38.916Z,1.70
2018-09-15T16:40:47.652Z,2.07
2018-09-15T16:46:00.953Z,2.67
2018-09-15T16:56:32.713Z,1.73
2018-09-15T17:01:52.757Z,2.63
2018-09-15T17:12:17.911Z,3.33
2018-09-15T17:17:30.553Z,2.10
2018-09-15T17:22:42.533Z,2.03
2018-09-15T17:27:56.117Z,2.57
2018-09-15T17:33:03.000Z,2.20
2018-09-15T17:38:07.031Z,3.00
2018-09-15T17:43:11.032Z,1.80
2018-09-15T17:48:14.790Z,1.97
2018-09-15T17:53:19.041Z,2.33
2018-09-15T17:58:22.821Z,2.20
2018-09-15T18:03:27.494Z,2.67
2018-09-15T18:08:31.257Z,2.13
2018-09-15T18:13:35.375Z,2.20
2018-09-15T18:18:39.649Z,2.03
2018-09-15T18:23:44.466Z,2.40
2018-09-15T18:28:54.562Z,2.97
2018-09-15T18:34:00.640Z,2.40
2018-09-15T18:39:07.286Z,2.20
2018-09-15T18:44:11.040Z,2.13
2018-09-15T18:49:14.754Z,2.83
2018-09-15T18:54:22.239Z,2.33
2018-09-15T18:59:30.015Z,3.43
2018-09-15T19:04:37.026Z,2.17
2018-09-15T19:09:46.244Z,2.27
2018-09-15T19:14:54.422Z,3.60
2018-09-15T19:20:01.807Z,4.07
2018-09-15T19:25:16.255Z,4.70
2018-09-15T19:30:21.483Z,3.90
2018-09-15T19:35:25.440Z,3.63
2018-09-15T19:40:29.878Z,3.93
2018-09-15T19:45:33.544Z,3.00
2018-09-15T19:50:37.111Z,4.20
2018-09-15T19:55:40.786Z,1.93
2018-09-15T20:00:44.308Z,4.00
2018-09-15T20:05:47.871Z,3.33
2018-09-15T20:10:51.386Z,3.70
2018-09-15T20:15:54.035Z,4.67
2018-09-15T20:20:56.848Z,3.90
2018-09-15T20:26:00.815Z,4.10
2018-09-15T20:40:37.573Z,4.97
2018-09-15T20:45:41.069Z,4.90
2018-09-15T20:50:44.537Z,3.67
2018-09-15T20:55:48.422Z,2.70
2018-09-15T21:00:52.317Z,2.67
2018-09-15T21:05:56.136Z,3.40
2018-09-15T21:10:59.673Z,2.53
2018-09-15T21:16:03.221Z,2.70
2018-09-15T21:21:07.171Z,2.80
2018-09-15T21:26:10.661Z,2.20
2018-09-15T21:31:14.175Z,2.70
2018-09-15T21:36:17.769Z,2.40
2018-09-15T21:41:21.510Z,2.00
2018-09-15T21:46:26.049Z,2.43
2018-09-15T21:51:30.470Z,3.00
2018-09-15T21:56:34.427Z,2.30
2018-09-15T22:01:37.912Z,3.10
2018-09-15T22:06:41.623Z,2.47
2018-09-15T22:11:45.052Z,2.83
2018-09-15T22:16:48.850Z,2.03
2018-09-15T22:21:52.322Z,2.30
2018-09-15T22:26:55.870Z,2.63
2018-09-15T22:31:59.781Z,2.30
2018-09-15T22:37:03.225Z,2.90
2018-09-15T22:42:06.790Z,2.30
2018-09-15T22:47:10.848Z,2.67
2018-09-15T22:52:14.290Z,2.50
2018-09-15T22:57:17.707Z,2.80
2018-09-15T23:02:21.210Z,3.13
2018-09-15T23:07:25.003Z,3.13
2018-09-15T23:12:32.232Z,3.40
2018-09-15T23:17:35.856Z,2.70
2018-09-15T23:22:39.842Z,2.40
2018-09-15T23:27:43.474Z,2.87
2018-09-15T23:32:47.183Z,2.70
2018-09-15T23:37:52.201Z,3.23
2018-09-15T23:42:55.619Z,3.00
2018-09-15T23:47:59.033Z,3.20
2018-09-15T23:53:02.958Z,2.90
2018-09-15T23:58:07.091Z,2.63
